sensor_id;sensor_type;location;lat;lon;timestamp;P1;durP1;ratioP1;P2;durP2;ratioP2
13309;SDS011;6723;48.256;16.402;2022-12-10T00:01:39;12.67;;;9.50;;
13309;SDS011;6723;48.256;16.402;2022-12-10T00:04:06;12.20;;;10.07;;
13309;SDS011;6723;48.256;16.402;2022-12-10T00:06:32;11.87;;;9.67;;
13309;SDS011;6723;48.256;16.402;2022-12-10T00:09:00;10.13;;;8.70;;
13309;SDS011;6723;48.256;16.402;2022-12-10T00:11:27;10.27;;;8.20;;
13309;SDS011;6723;48.256;16.402;2022-12-10T00:13:54;10.50;;;8.60;;
13309;SDS011;6723;48.256;16.402;2022-12-10T00:16:20;9.37;;;7.73;;
13309;SDS011;6723;48.256;16.402;2022-12-10T00:18:48;10.03;;;7.70;;
13309;SDS011;6723;48.256;16.402;2022-12-10T00:21:17;9.70;;;7.80;;
13309;SDS011;6723;48.256;16.402;2022-12-10T00:23:46;9.87;;;7.97;;
13309;SDS011;6723;48.256;16.402;2022-12-10T00:28:40;8.33;;;6.47;;
13309;SDS011;6723;48.256;16.402;2022-12-10T00:31:08;8.17;;;7.17;;
13309;SDS011;6723;48.256;16.402;2022-12-10T00:33:36;8.77;;;6.93;;
13309;SDS011;6723;48.256;16.402;2022-12-10T00:36:03;7.97;;;6.67;;
13309;SDS011;6723;48.256;16.402;2022-12-10T00:38:32;7.37;;;6.33;;
13309;SDS011;6723;48.256;16.402;2022-12-10T00:40:58;8.53;;;6.73;;
13309;SDS011;6723;48.256;16.402;2022-12-10T00:43:25;7.80;;;6.73;;
13309;SDS011;6723;48.256;16.402;2022-12-10T00:45:52;7.73;;;6.93;;
13309;SDS011;6723;48.256;16.402;2022-12-10T00:48:18;9.07;;;7.13;;
13309;SDS011;6723;48.256;16.402;2022-12-10T00:50:54;8.40;;;6.90;;
13309;SDS011;6723;48.256;16.402;2022-12-10T00:53:25;8.50;;;6.87;;
13309;SDS011;6723;48.256;16.402;2022-12-10T00:55:53;8.30;;;7.03;;
13309;SDS011;6723;48.256;16.402;2022-12-10T00:58:19;10.90;;;6.50;;
13309;SDS011;6723;48.256;16.402;2022-12-10T01:00:46;8.60;;;7.03;;
13309;SDS011;6723;48.256;16.402;2022-12-10T01:03:13;7.70;;;6.40;;
13309;SDS011;6723;48.256;16.402;2022-12-10T01:05:40;8.07;;;6.80;;
13309;SDS011;6723;48.256;16.402;2022-12-10T01:08:06;8.90;;;7.23;;
13309;SDS011;6723;48.256;16.402;2022-12-10T01:10:32;9.93;;;7.60;;
13309;SDS011;6723;48.256;16.402;2022-12-10T01:12:57;9.63;;;7.83;;
13309;SDS011;6723;48.256;16.402;2022-12-10T01:15:23;10.33;;;8.30;;
13309;SDS011;6723;48.256;16.402;2022-12-10T01:17:49;10.17;;;8.53;;
13309;SDS011;6723;48.256;16.402;2022-12-10T01:20:14;10.60;;;8.43;;
13309;SDS011;6723;48.256;16.402;2022-12-10T01:22:40;12.07;;;8.77;;
13309;SDS011;6723;48.256;16.402;2022-12-10T01:25:06;12.97;;;9.90;;
13309;SDS011;6723;48.256;16.402;2022-12-10T01:27:32;13.50;;;9.90;;
13309;SDS011;6723;48.256;16.402;2022-12-10T01:29:58;12.03;;;9.33;;
13309;SDS011;6723;48.256;16.402;2022-12-10T01:32:23;12.27;;;9.37;;
13309;SDS011;6723;48.256;16.402;2022-12-10T01:34:49;13.93;;;10.37;;
13309;SDS011;6723;48.256;16.402;2022-12-10T01:37:15;12.20;;;9.90;;
13309;SDS011;6723;48.256;16.402;2022-12-10T01:39:41;12.73;;;10.47;;
13309;SDS011;6723;48.256;16.402;2022-12-10T01:42:09;14.97;;;10.27;;
13309;SDS011;6723;48.256;16.402;2022-12-10T01:47:06;12.67;;;10.33;;
13309;SDS011;6723;48.256;16.402;2022-12-10T01:49:33;12.63;;;10.20;;
13309;SDS011;6723;48.256;16.402;2022-12-10T01:52:03;12.40;;;10.27;;
13309;SDS011;6723;48.256;16.402;2022-12-10T01:54:32;11.80;;;9.90;;
13309;SDS011;6723;48.256;16.402;2022-12-10T01:57:02;12.80;;;9.93;;
13309;SDS011;6723;48.256;16.402;2022-12-10T01:59:33;13.57;;;10.70;;
13309;SDS011;6723;48.256;16.402;2022-12-10T02:07:27;12.73;;;9.93;;
13309;SDS011;6723;48.256;16.402;2022-12-10T02:10:21;13.10;;;10.80;;
13309;SDS011;6723;48.256;16.402;2022-12-10T02:12:54;13.30;;;10.40;;
13309;SDS011;6723;48.256;16.402;2022-12-10T02:15:26;12.13;;;10.07;;
13309;SDS011;6723;48.256;16.402;2022-12-10T02:18:41;11.13;;;9.70;;
13309;SDS011;6723;48.256;16.402;2022-12-10T02:20:49;13.07;;;9.97;;
13309;SDS011;6723;48.256;16.402;2022-12-10T02:23:20;11.53;;;9.40;;
13309;SDS011;6723;48.256;16.402;2022-12-10T02:26:30;14.00;;;9.77;;
13309;SDS011;6723;48.256;16.402;2022-12-10T02:29:13;13.13;;;10.47;;
13309;SDS011;6723;48.256;16.402;2022-12-10T02:31:52;12.23;;;9.80;;
13309;SDS011;6723;48.256;16.402;2022-12-10T02:34:21;12.37;;;9.60;;
13309;SDS011;6723;48.256;16.402;2022-12-10T02:36:50;14.03;;;10.63;;
13309;SDS011;6723;48.256;16.402;2022-12-10T02:39:20;12.73;;;9.80;;
13309;SDS011;6723;48.256;16.402;2022-12-10T02:41:52;13.57;;;10.07;;
13309;SDS011;6723;48.256;16.402;2022-12-10T02:44:19;12.10;;;10.27;;
13309;SDS011;6723;48.256;16.402;2022-12-10T02:46:47;11.93;;;9.40;;
13309;SDS011;6723;48.256;16.402;2022-12-10T02:49:15;12.50;;;9.67;;
13309;SDS011;6723;48.256;16.402;2022-12-10T02:51:42;12.83;;;9.80;;
13309;SDS011;6723;48.256;16.402;2022-12-10T02:54:33;13.20;;;10.50;;
13309;SDS011;6723;48.256;16.402;2022-12-10T02:57:14;13.30;;;10.23;;
13309;SDS011;6723;48.256;16.402;2022-12-10T03:07:44;13.47;;;10.43;;
13309;SDS011;6723;48.256;16.402;2022-12-10T03:10:25;14.33;;;11.03;;
13309;SDS011;6723;48.256;16.402;2022-12-10T03:13:14;13.37;;;10.37;;
13309;SDS011;6723;48.256;16.402;2022-12-10T03:15:42;11.60;;;9.23;;
13309;SDS011;6723;48.256;16.402;2022-12-10T03:18:11;12.37;;;10.37;;
13309;SDS011;6723;48.256;16.402;2022-12-10T03:20:41;13.37;;;10.47;;
13309;SDS011;6723;48.256;16.402;2022-12-10T03:23:10;12.67;;;10.57;;
13309;SDS011;6723;48.256;16.402;2022-12-10T03:25:39;12.13;;;10.10;;
13309;SDS011;6723;48.256;16.402;2022-12-10T03:28:05;11.87;;;9.87;;
13309;SDS011;6723;48.256;16.402;2022-12-10T03:30:32;14.47;;;10.87;;
13309;SDS011;6723;48.256;16.402;2022-12-10T03:33:00;14.00;;;10.97;;
13309;SDS011;6723;48.256;16.402;2022-12-10T03:35:27;13.23;;;10.80;;
13309;SDS011;6723;48.256;16.402;2022-12-10T03:37:53;14.83;;;10.90;;
13309;SDS011;6723;48.256;16.402;2022-12-10T03:40:21;13.37;;;10.70;;
13309;SDS011;6723;48.256;16.402;2022-12-10T03:42:49;15.57;;;10.73;;
13309;SDS011;6723;48.256;16.402;2022-12-10T03:45:15;14.00;;;11.30;;
13309;SDS011;6723;48.256;16.402;2022-12-10T03:47:41;14.33;;;11.27;;
13309;SDS011;6723;48.256;16.402;2022-12-10T03:50:08;13.13;;;11.00;;
13309;SDS011;6723;48.256;16.402;2022-12-10T03:52:34;13.50;;;11.47;;
13309;SDS011;6723;48.256;16.402;2022-12-10T03:55:00;16.07;;;11.30;;
13309;SDS011;6723;48.256;16.402;2022-12-10T03:57:27;14.27;;;10.63;;
13309;SDS011;6723;48.256;16.402;2022-12-10T03:59:53;14.17;;;11.33;;
13309;SDS011;6723;48.256;16.402;2022-12-10T04:02:19;15.37;;;11.77;;
13309;SDS011;6723;48.256;16.402;2022-12-10T04:04:44;13.30;;;10.83;;
13309;SDS011;6723;48.256;16.402;2022-12-10T04:07:10;14.53;;;11.13;;
13309;SDS011;6723;48.256;16.402;2022-12-10T04:09:36;15.47;;;11.20;;
13309;SDS011;6723;48.256;16.402;2022-12-10T04:12:02;14.37;;;10.77;;
13309;SDS011;6723;48.256;16.402;2022-12-10T04:14:28;12.97;;;10.43;;
13309;SDS011;6723;48.256;16.402;2022-12-10T04:17:12;13.17;;;10.43;;
13309;SDS011;6723;48.256;16.402;2022-12-10T04:19:38;13.17;;;10.30;;
13309;SDS011;6723;48.256;16.402;2022-12-10T04:22:04;13.33;;;10.97;;
13309;SDS011;6723;48.256;16.402;2022-12-10T04:24:48;15.03;;;10.60;;
13309;SDS011;6723;48.256;16.402;2022-12-10T04:27:33;14.00;;;10.77;;
13309;SDS011;6723;48.256;16.402;2022-12-10T04:30:02;13.77;;;11.13;;
13309;SDS011;6723;48.256;16.402;2022-12-10T04:32:30;12.50;;;10.40;;
13309;SDS011;6723;48.256;16.402;2022-12-10T04:34:55;15.07;;;10.67;;
13309;SDS011;6723;48.256;16.402;2022-12-10T04:37:22;14.17;;;10.77;;
13309;SDS011;6723;48.256;16.402;2022-12-10T04:39:51;12.23;;;9.83;;
13309;SDS011;6723;48.256;16.402;2022-12-10T04:42:17;14.03;;;10.80;;
13309;SDS011;6723;48.256;16.402;2022-12-10T04:44:44;14.90;;;11.30;;
13309;SDS011;6723;48.256;16.402;2022-12-10T04:47:10;12.90;;;10.67;;
13309;SDS011;6723;48.256;16.402;2022-12-10T04:49:37;13.90;;;10.40;;
13309;SDS011;6723;48.256;16.402;2022-12-10T04:52:04;13.30;;;10.40;;
13309;SDS011;6723;48.256;16.402;2022-12-10T04:54:32;14.73;;;10.63;;
13309;SDS011;6723;48.256;16.402;2022-12-10T04:56:58;14.40;;;10.30;;
13309;SDS011;6723;48.256;16.402;2022-12-10T04:59:24;14.37;;;11.03;;
13309;SDS011;6723;48.256;16.402;2022-12-10T05:01:50;13.67;;;10.80;;
13309;SDS011;6723;48.256;16.402;2022-12-10T05:04:16;14.70;;;10.50;;
13309;SDS011;6723;48.256;16.402;2022-12-10T05:06:43;14.57;;;10.90;;
13309;SDS011;6723;48.256;16.402;2022-12-10T05:09:11;13.60;;;10.57;;
13309;SDS011;6723;48.256;16.402;2022-12-10T05:11:37;14.63;;;10.87;;
13309;SDS011;6723;48.256;16.402;2022-12-10T05:14:03;14.57;;;11.40;;
13309;SDS011;6723;48.256;16.402;2022-12-10T05:16:30;15.40;;;11.20;;
13309;SDS011;6723;48.256;16.402;2022-12-10T05:18:57;15.27;;;11.20;;
13309;SDS011;6723;48.256;16.402;2022-12-10T05:24:31;15.43;;;10.80;;
13309;SDS011;6723;48.256;16.402;2022-12-10T05:26:57;15.27;;;10.90;;
13309;SDS011;6723;48.256;16.402;2022-12-10T05:29:23;14.33;;;10.63;;
13309;SDS011;6723;48.256;16.402;2022-12-10T05:31:49;14.83;;;11.13;;
13309;SDS011;6723;48.256;16.402;2022-12-10T05:34:15;14.73;;;11.10;;
13309;SDS011;6723;48.256;16.402;2022-12-10T05:36:40;14.77;;;11.50;;
13309;SDS011;6723;48.256;16.402;2022-12-10T05:39:07;14.90;;;11.77;;
13309;SDS011;6723;48.256;16.402;2022-12-10T05:41:34;16.07;;;11.93;;
13309;SDS011;6723;48.256;16.402;2022-12-10T05:44:01;16.20;;;11.97;;
13309;SDS011;6723;48.256;16.402;2022-12-10T05:46:29;14.73;;;11.57;;
13309;SDS011;6723;48.256;16.402;2022-12-10T05:48:56;17.53;;;12.43;;
13309;SDS011;6723;48.256;16.402;2022-12-10T05:54:09;17.77;;;12.33;;
13309;SDS011;6723;48.256;16.402;2022-12-10T05:56:35;17.40;;;12.77;;
13309;SDS011;6723;48.256;16.402;2022-12-10T05:59:02;17.07;;;12.40;;
13309;SDS011;6723;48.256;16.402;2022-12-10T06:01:31;18.03;;;12.80;;
13309;SDS011;6723;48.256;16.402;2022-12-10T06:03:59;17.37;;;12.23;;
13309;SDS011;6723;48.256;16.402;2022-12-10T06:06:29;16.97;;;12.30;;
13309;SDS011;6723;48.256;16.402;2022-12-10T06:08:56;15.03;;;11.30;;
13309;SDS011;6723;48.256;16.402;2022-12-10T06:11:22;15.17;;;11.10;;
13309;SDS011;6723;48.256;16.402;2022-12-10T06:13:49;19.33;;;13.03;;
13309;SDS011;6723;48.256;16.402;2022-12-10T06:16:15;18.10;;;12.10;;
13309;SDS011;6723;48.256;16.402;2022-12-10T06:18:41;18.87;;;12.20;;
13309;SDS011;6723;48.256;16.402;2022-12-10T06:21:12;17.13;;;12.40;;
13309;SDS011;6723;48.256;16.402;2022-12-10T06:23:40;17.07;;;12.93;;
13309;SDS011;6723;48.256;16.402;2022-12-10T06:26:11;17.00;;;12.70;;
13309;SDS011;6723;48.256;16.402;2022-12-10T06:28:41;17.60;;;13.10;;
13309;SDS011;6723;48.256;16.402;2022-12-10T06:31:10;16.90;;;12.73;;
13309;SDS011;6723;48.256;16.402;2022-12-10T06:33:37;18.13;;;12.93;;
13309;SDS011;6723;48.256;16.402;2022-12-10T06:36:03;16.80;;;12.83;;
13309;SDS011;6723;48.256;16.402;2022-12-10T06:38:30;18.10;;;13.50;;
13309;SDS011;6723;48.256;16.402;2022-12-10T06:40:57;20.43;;;13.43;;
13309;SDS011;6723;48.256;16.402;2022-12-10T06:43:23;18.23;;;13.57;;
13309;SDS011;6723;48.256;16.402;2022-12-10T06:45:48;16.73;;;12.97;;
13309;SDS011;6723;48.256;16.402;2022-12-10T06:48:14;18.90;;;13.37;;
13309;SDS011;6723;48.256;16.402;2022-12-10T06:50:40;18.73;;;13.40;;
13309;SDS011;6723;48.256;16.402;2022-12-10T06:53:06;17.60;;;13.10;;
13309;SDS011;6723;48.256;16.402;2022-12-10T06:55:32;19.23;;;13.90;;
13309;SDS011;6723;48.256;16.402;2022-12-10T06:57:58;18.67;;;13.73;;
13309;SDS011;6723;48.256;16.402;2022-12-10T07:00:23;19.73;;;13.63;;
13309;SDS011;6723;48.256;16.402;2022-12-10T07:02:49;18.77;;;13.30;;
13309;SDS011;6723;48.256;16.402;2022-12-10T07:05:15;17.60;;;12.80;;
13309;SDS011;6723;48.256;16.402;2022-12-10T07:10:32;18.30;;;12.80;;
13309;SDS011;6723;48.256;16.402;2022-12-10T07:12:58;17.60;;;13.20;;
13309;SDS011;6723;48.256;16.402;2022-12-10T07:15:24;18.20;;;12.97;;
13309;SDS011;6723;48.256;16.402;2022-12-10T07:17:52;18.30;;;13.03;;
13309;SDS011;6723;48.256;16.402;2022-12-10T07:20:17;18.70;;;13.37;;
13309;SDS011;6723;48.256;16.402;2022-12-10T07:22:43;19.80;;;13.60;;
13309;SDS011;6723;48.256;16.402;2022-12-10T07:25:09;19.20;;;12.87;;
13309;SDS011;6723;48.256;16.402;2022-12-10T07:27:35;18.70;;;13.33;;
13309;SDS011;6723;48.256;16.402;2022-12-10T07:30:01;20.47;;;13.80;;
13309;SDS011;6723;48.256;16.402;2022-12-10T07:32:27;20.40;;;13.40;;
13309;SDS011;6723;48.256;16.402;2022-12-10T07:34:53;20.30;;;13.67;;
13309;SDS011;6723;48.256;16.402;2022-12-10T07:37:19;18.90;;;13.30;;
13309;SDS011;6723;48.256;16.402;2022-12-10T07:39:46;20.07;;;13.87;;
13309;SDS011;6723;48.256;16.402;2022-12-10T07:42:11;20.40;;;13.87;;
13309;SDS011;6723;48.256;16.402;2022-12-10T07:44:37;19.97;;;13.60;;
13309;SDS011;6723;48.256;16.402;2022-12-10T07:47:03;19.90;;;13.50;;
13309;SDS011;6723;48.256;16.402;2022-12-10T07:49:29;19.63;;;13.03;;
13309;SDS011;6723;48.256;16.402;2022-12-10T07:51:55;20.10;;;14.03;;
13309;SDS011;6723;48.256;16.402;2022-12-10T07:54:20;20.33;;;14.33;;
13309;SDS011;6723;48.256;16.402;2022-12-10T07:56:46;18.50;;;13.33;;
13309;SDS011;6723;48.256;16.402;2022-12-10T07:59:20;19.57;;;13.70;;
13309;SDS011;6723;48.256;16.402;2022-12-10T08:01:46;19.87;;;13.50;;
13309;SDS011;6723;48.256;16.402;2022-12-10T08:04:12;19.70;;;13.67;;
13309;SDS011;6723;48.256;16.402;2022-12-10T08:06:40;19.27;;;13.63;;
13309;SDS011;6723;48.256;16.402;2022-12-10T08:09:06;19.87;;;13.53;;
13309;SDS011;6723;48.256;16.402;2022-12-10T08:11:32;18.53;;;13.20;;
13309;SDS011;6723;48.256;16.402;2022-12-10T08:13:58;18.93;;;13.37;;
13309;SDS011;6723;48.256;16.402;2022-12-10T08:16:24;20.03;;;14.00;;
13309;SDS011;6723;48.256;16.402;2022-12-10T08:18:52;17.97;;;12.73;;
13309;SDS011;6723;48.256;16.402;2022-12-10T08:21:21;20.67;;;13.93;;
13309;SDS011;6723;48.256;16.402;2022-12-10T08:23:48;21.47;;;15.07;;
13309;SDS011;6723;48.256;16.402;2022-12-10T08:26:15;21.40;;;14.63;;
13309;SDS011;6723;48.256;16.402;2022-12-10T08:28:43;22.73;;;15.70;;
13309;SDS011;6723;48.256;16.402;2022-12-10T08:31:10;22.03;;;15.97;;
13309;SDS011;6723;48.256;16.402;2022-12-10T08:33:37;25.97;;;17.73;;
13309;SDS011;6723;48.256;16.402;2022-12-10T08:36:05;24.87;;;16.63;;
13309;SDS011;6723;48.256;16.402;2022-12-10T08:38:32;20.17;;;14.53;;
13309;SDS011;6723;48.256;16.402;2022-12-10T08:41:11;20.70;;;13.93;;
13309;SDS011;6723;48.256;16.402;2022-12-10T08:43:39;19.53;;;14.70;;
13309;SDS011;6723;48.256;16.402;2022-12-10T08:46:05;19.93;;;13.50;;
13309;SDS011;6723;48.256;16.402;2022-12-10T08:48:32;18.77;;;13.67;;
13309;SDS011;6723;48.256;16.402;2022-12-10T08:50:59;18.77;;;13.73;;
13309;SDS011;6723;48.256;16.402;2022-12-10T08:53:25;19.53;;;13.90;;
13309;SDS011;6723;48.256;16.402;2022-12-10T08:55:51;21.77;;;14.67;;
13309;SDS011;6723;48.256;16.402;2022-12-10T08:58:18;21.63;;;14.30;;
13309;SDS011;6723;48.256;16.402;2022-12-10T09:00:45;21.70;;;13.43;;
13309;SDS011;6723;48.256;16.402;2022-12-10T09:03:12;19.57;;;12.47;;
13309;SDS011;6723;48.256;16.402;2022-12-10T09:05:38;20.27;;;13.70;;
13309;SDS011;6723;48.256;16.402;2022-12-10T09:08:21;17.97;;;12.67;;
13309;SDS011;6723;48.256;16.402;2022-12-10T09:10:46;18.77;;;12.93;;
13309;SDS011;6723;48.256;16.402;2022-12-10T09:13:12;18.47;;;12.93;;
13309;SDS011;6723;48.256;16.402;2022-12-10T09:15:38;19.73;;;13.43;;
13309;SDS011;6723;48.256;16.402;2022-12-10T09:18:04;20.67;;;13.90;;
13309;SDS011;6723;48.256;16.402;2022-12-10T09:20:30;19.47;;;13.53;;
13309;SDS011;6723;48.256;16.402;2022-12-10T09:23:10;20.63;;;13.97;;
13309;SDS011;6723;48.256;16.402;2022-12-10T09:25:36;20.10;;;13.43;;
13309;SDS011;6723;48.256;16.402;2022-12-10T09:28:02;17.23;;;12.97;;
13309;SDS011;6723;48.256;16.402;2022-12-10T09:30:27;20.33;;;13.37;;
13309;SDS011;6723;48.256;16.402;2022-12-10T09:32:53;21.47;;;13.47;;
13309;SDS011;6723;48.256;16.402;2022-12-10T09:35:19;19.60;;;14.40;;
13309;SDS011;6723;48.256;16.402;2022-12-10T09:37:45;21.50;;;15.47;;
13309;SDS011;6723;48.256;16.402;2022-12-10T09:40:15;22.23;;;14.90;;
13309;SDS011;6723;48.256;16.402;2022-12-10T09:45:32;22.77;;;15.10;;
13309;SDS011;6723;48.256;16.402;2022-12-10T09:51:20;21.90;;;14.63;;
13309;SDS011;6723;48.256;16.402;2022-12-10T09:53:49;22.90;;;15.37;;
13309;SDS011;6723;48.256;16.402;2022-12-10T09:56:28;19.43;;;13.20;;
13309;SDS011;6723;48.256;16.402;2022-12-10T09:58:59;22.77;;;15.00;;
13309;SDS011;6723;48.256;16.402;2022-12-10T10:01:36;17.03;;;12.70;;
13309;SDS011;6723;48.256;16.402;2022-12-10T10:04:16;17.73;;;12.33;;
13309;SDS011;6723;48.256;16.402;2022-12-10T10:06:41;18.03;;;12.33;;
13309;SDS011;6723;48.256;16.402;2022-12-10T10:09:09;17.17;;;12.40;;
13309;SDS011;6723;48.256;16.402;2022-12-10T10:11:38;18.93;;;12.83;;
13309;SDS011;6723;48.256;16.402;2022-12-10T10:14:12;20.73;;;13.90;;
13309;SDS011;6723;48.256;16.402;2022-12-10T10:16:48;26.63;;;14.10;;
13309;SDS011;6723;48.256;16.402;2022-12-10T10:19:33;22.47;;;13.43;;
13309;SDS011;6723;48.256;16.402;2022-12-10T10:22:02;19.57;;;13.67;;
13309;SDS011;6723;48.256;16.402;2022-12-10T10:24:36;19.53;;;13.30;;
13309;SDS011;6723;48.256;16.402;2022-12-10T10:27:14;22.10;;;13.93;;
13309;SDS011;6723;48.256;16.402;2022-12-10T10:29:53;21.97;;;14.33;;
13309;SDS011;6723;48.256;16.402;2022-12-10T10:35:04;19.60;;;13.27;;
13309;SDS011;6723;48.256;16.402;2022-12-10T10:37:40;22.10;;;14.20;;
13309;SDS011;6723;48.256;16.402;2022-12-10T10:40:23;19.97;;;13.93;;
13309;SDS011;6723;48.256;16.402;2022-12-10T10:42:57;22.07;;;14.60;;
13309;SDS011;6723;48.256;16.402;2022-12-10T10:45:40;20.73;;;13.90;;
13309;SDS011;6723;48.256;16.402;2022-12-10T10:48:14;20.07;;;13.77;;
13309;SDS011;6723;48.256;16.402;2022-12-10T10:56:28;22.93;;;15.23;;
13309;SDS011;6723;48.256;16.402;2022-12-10T10:59:04;20.07;;;14.57;;
13309;SDS011;6723;48.256;16.402;2022-12-10T11:04:55;21.10;;;13.93;;
13309;SDS011;6723;48.256;16.402;2022-12-10T11:07:38;20.70;;;14.60;;
13309;SDS011;6723;48.256;16.402;2022-12-10T11:10:18;20.93;;;13.93;;
13309;SDS011;6723;48.256;16.402;2022-12-10T11:23:39;21.13;;;14.00;;
13309;SDS011;6723;48.256;16.402;2022-12-10T11:29:02;21.73;;;14.23;;
13309;SDS011;6723;48.256;16.402;2022-12-10T11:40:24;20.60;;;14.47;;
13309;SDS011;6723;48.256;16.402;2022-12-10T11:51:44;22.70;;;15.33;;
13309;SDS011;6723;48.256;16.402;2022-12-10T11:57:21;21.87;;;14.97;;
13309;SDS011;6723;48.256;16.402;2022-12-10T12:00:22;20.23;;;14.70;;
13309;SDS011;6723;48.256;16.402;2022-12-10T12:14:31;21.90;;;15.00;;
13309;SDS011;6723;48.256;16.402;2022-12-10T12:17:25;29.63;;;17.40;;
13309;SDS011;6723;48.256;16.402;2022-12-10T12:23:15;24.97;;;16.33;;
13309;SDS011;6723;48.256;16.402;2022-12-10T12:25:56;21.63;;;15.40;;
13309;SDS011;6723;48.256;16.402;2022-12-10T12:31:37;24.73;;;15.27;;
13309;SDS011;6723;48.256;16.402;2022-12-10T12:34:16;23.83;;;15.97;;
13309;SDS011;6723;48.256;16.402;2022-12-10T12:36:49;22.57;;;14.93;;
13309;SDS011;6723;48.256;16.402;2022-12-10T12:39:20;25.90;;;16.47;;
13309;SDS011;6723;48.256;16.402;2022-12-10T12:42:13;20.83;;;14.20;;
13309;SDS011;6723;48.256;16.402;2022-12-10T12:53:02;21.30;;;14.20;;
13309;SDS011;6723;48.256;16.402;2022-12-10T12:55:50;21.37;;;14.30;;
13309;SDS011;6723;48.256;16.402;2022-12-10T13:01:18;19.10;;;13.13;;
13309;SDS011;6723;48.256;16.402;2022-12-10T13:03:50;19.10;;;13.03;;
13309;SDS011;6723;48.256;16.402;2022-12-10T13:11:34;20.17;;;13.20;;
13309;SDS011;6723;48.256;16.402;2022-12-10T13:24:21;20.43;;;13.63;;
13309;SDS011;6723;48.256;16.402;2022-12-10T13:27:18;19.73;;;13.20;;
13309;SDS011;6723;48.256;16.402;2022-12-10T13:29:57;22.17;;;13.57;;
13309;SDS011;6723;48.256;16.402;2022-12-10T13:32:52;20.87;;;14.03;;
13309;SDS011;6723;48.256;16.402;2022-12-10T13:35:29;20.07;;;13.20;;
13309;SDS011;6723;48.256;16.402;2022-12-10T13:38:03;20.23;;;13.73;;
13309;SDS011;6723;48.256;16.402;2022-12-10T13:48:57;19.87;;;13.43;;
13309;SDS011;6723;48.256;16.402;2022-12-10T13:54:33;23.63;;;14.57;;
13309;SDS011;6723;48.256;16.402;2022-12-10T13:59:44;20.13;;;13.73;;
13309;SDS011;6723;48.256;16.402;2022-12-10T14:08:02;21.83;;;14.70;;
13309;SDS011;6723;48.256;16.402;2022-12-10T14:10:34;21.43;;;14.33;;
13309;SDS011;6723;48.256;16.402;2022-12-10T14:13:02;20.63;;;14.17;;
13309;SDS011;6723;48.256;16.402;2022-12-10T14:15:30;22.40;;;14.37;;
13309;SDS011;6723;48.256;16.402;2022-12-10T14:18:00;21.80;;;14.17;;
13309;SDS011;6723;48.256;16.402;2022-12-10T14:25:58;22.80;;;15.57;;
13309;SDS011;6723;48.256;16.402;2022-12-10T14:28:37;23.87;;;15.03;;
13309;SDS011;6723;48.256;16.402;2022-12-10T14:31:06;20.20;;;14.00;;
13309;SDS011;6723;48.256;16.402;2022-12-10T14:33:38;24.77;;;15.27;;
13309;SDS011;6723;48.256;16.402;2022-12-10T14:36:05;22.07;;;14.47;;
13309;SDS011;6723;48.256;16.402;2022-12-10T14:38:32;21.63;;;14.80;;
13309;SDS011;6723;48.256;16.402;2022-12-10T14:40:59;25.23;;;15.77;;
13309;SDS011;6723;48.256;16.402;2022-12-10T14:46:17;24.23;;;15.60;;
13309;SDS011;6723;48.256;16.402;2022-12-10T14:48:48;23.73;;;16.00;;
13309;SDS011;6723;48.256;16.402;2022-12-10T14:51:18;24.23;;;15.67;;
13309;SDS011;6723;48.256;16.402;2022-12-10T14:53:46;25.07;;;16.10;;
13309;SDS011;6723;48.256;16.402;2022-12-10T14:56:25;23.67;;;16.17;;
13309;SDS011;6723;48.256;16.402;2022-12-10T15:04:22;22.23;;;15.20;;
13309;SDS011;6723;48.256;16.402;2022-12-10T15:06:49;22.63;;;14.87;;
13309;SDS011;6723;48.256;16.402;2022-12-10T15:09:16;22.87;;;15.30;;
13309;SDS011;6723;48.256;16.402;2022-12-10T15:11:51;22.80;;;14.60;;
13309;SDS011;6723;48.256;16.402;2022-12-10T15:14:21;22.27;;;14.93;;
13309;SDS011;6723;48.256;16.402;2022-12-10T15:16:49;22.40;;;14.80;;
13309;SDS011;6723;48.256;16.402;2022-12-10T15:21:50;27.33;;;16.53;;
13309;SDS011;6723;48.256;16.402;2022-12-10T15:24:18;32.70;;;17.77;;
13309;SDS011;6723;48.256;16.402;2022-12-10T15:26:52;26.57;;;16.23;;
13309;SDS011;6723;48.256;16.402;2022-12-10T15:31:54;26.17;;;16.17;;
13309;SDS011;6723;48.256;16.402;2022-12-10T15:34:22;24.50;;;15.40;;
13309;SDS011;6723;48.256;16.402;2022-12-10T15:36:53;24.93;;;16.37;;
13309;SDS011;6723;48.256;16.402;2022-12-10T15:39:24;24.93;;;16.50;;
13309;SDS011;6723;48.256;16.402;2022-12-10T15:47:12;28.37;;;16.90;;
13309;SDS011;6723;48.256;16.402;2022-12-10T15:49:43;25.80;;;16.47;;
13309;SDS011;6723;48.256;16.402;2022-12-10T15:52:16;25.37;;;15.97;;
13309;SDS011;6723;48.256;16.402;2022-12-10T15:54:43;24.97;;;16.67;;
13309;SDS011;6723;48.256;16.402;2022-12-10T15:57:28;27.93;;;16.67;;
13309;SDS011;6723;48.256;16.402;2022-12-10T16:00:00;23.47;;;15.27;;
13309;SDS011;6723;48.256;16.402;2022-12-10T16:02:37;32.50;;;20.53;;
13309;SDS011;6723;48.256;16.402;2022-12-10T16:07:55;27.30;;;16.90;;
13309;SDS011;6723;48.256;16.402;2022-12-10T16:10:25;24.27;;;15.83;;
13309;SDS011;6723;48.256;16.402;2022-12-10T16:12:59;25.10;;;16.00;;
13309;SDS011;6723;48.256;16.402;2022-12-10T16:15:29;23.93;;;15.77;;
13309;SDS011;6723;48.256;16.402;2022-12-10T16:18:01;22.67;;;15.37;;
13309;SDS011;6723;48.256;16.402;2022-12-10T16:20:28;24.63;;;15.50;;
13309;SDS011;6723;48.256;16.402;2022-12-10T16:22:55;23.17;;;15.10;;
13309;SDS011;6723;48.256;16.402;2022-12-10T16:25:23;24.53;;;15.33;;
13309;SDS011;6723;48.256;16.402;2022-12-10T16:27:51;23.60;;;15.47;;
13309;SDS011;6723;48.256;16.402;2022-12-10T16:30:19;25.03;;;16.53;;
13309;SDS011;6723;48.256;16.402;2022-12-10T16:32:45;27.57;;;17.87;;
13309;SDS011;6723;48.256;16.402;2022-12-10T16:35:11;24.77;;;15.90;;
13309;SDS011;6723;48.256;16.402;2022-12-10T16:37:40;23.87;;;15.90;;
13309;SDS011;6723;48.256;16.402;2022-12-10T16:40:07;24.73;;;15.70;;
13309;SDS011;6723;48.256;16.402;2022-12-10T16:42:33;25.93;;;16.03;;
13309;SDS011;6723;48.256;16.402;2022-12-10T16:45:01;24.93;;;16.00;;
13309;SDS011;6723;48.256;16.402;2022-12-10T16:47:27;25.67;;;16.13;;
13309;SDS011;6723;48.256;16.402;2022-12-10T16:49:53;24.17;;;15.63;;
13309;SDS011;6723;48.256;16.402;2022-12-10T16:52:18;27.67;;;16.80;;
13309;SDS011;6723;48.256;16.402;2022-12-10T16:54:44;25.53;;;16.67;;
13309;SDS011;6723;48.256;16.402;2022-12-10T16:57:10;32.47;;;20.83;;
13309;SDS011;6723;48.256;16.402;2022-12-10T16:59:39;26.30;;;17.23;;
13309;SDS011;6723;48.256;16.402;2022-12-10T17:02:15;27.53;;;17.50;;
13309;SDS011;6723;48.256;16.402;2022-12-10T17:04:42;26.23;;;17.50;;
13309;SDS011;6723;48.256;16.402;2022-12-10T17:07:09;30.80;;;19.17;;
13309;SDS011;6723;48.256;16.402;2022-12-10T17:09:39;30.90;;;19.10;;
13309;SDS011;6723;48.256;16.402;2022-12-10T17:12:07;26.73;;;16.93;;
13309;SDS011;6723;48.256;16.402;2022-12-10T17:14:35;24.87;;;16.33;;
13309;SDS011;6723;48.256;16.402;2022-12-10T17:17:03;23.93;;;15.73;;
13309;SDS011;6723;48.256;16.402;2022-12-10T17:19:31;27.57;;;16.57;;
13309;SDS011;6723;48.256;16.402;2022-12-10T17:22:01;26.77;;;16.83;;
13309;SDS011;6723;48.256;16.402;2022-12-10T17:24:27;25.40;;;15.93;;
13309;SDS011;6723;48.256;16.402;2022-12-10T17:26:54;27.10;;;16.57;;
13309;SDS011;6723;48.256;16.402;2022-12-10T17:29:36;26.33;;;16.53;;